createdAt,value
2022-08-20T00:01:08.107Z,20.25
2022-08-20T00:03:40.236Z,20.16
2022-08-20T00:06:10.690Z,20.19
2022-08-20T00:08:39.751Z,20.02
2022-08-20T00:11:11.633Z,20.07
2022-08-20T00:13:45.356Z,20.00
2022-08-20T00:16:15.443Z,20.03
2022-08-20T00:18:43.507Z,20.04
2022-08-20T00:21:18.058Z,20.05
2022-08-20T00:23:48.885Z,19.96
2022-08-20T00:26:18.240Z,19.91
2022-08-20T00:28:51.229Z,19.81
2022-08-20T00:31:22.626Z,19.60
2022-08-20T00:34:55.589Z,19.59
2022-08-20T00:41:06.325Z,19.47
2022-08-20T00:43:38.114Z,19.36
2022-08-20T00:46:14.131Z,19.31
2022-08-20T00:48:43.520Z,19.25
2022-08-20T00:51:15.115Z,19.28
2022-08-20T00:53:43.348Z,19.28
2022-08-20T00:56:12.444Z,19.28
2022-08-20T00:58:42.121Z,19.35
2022-08-20T01:01:11.213Z,19.41
2022-08-20T01:03:39.949Z,19.33
2022-08-20T01:06:09.463Z,19.39
2022-08-20T01:08:39.336Z,19.28
2022-08-20T01:11:16.866Z,19.37
2022-08-20T01:13:48.426Z,19.33
2022-08-20T01:16:24.286Z,19.40
2022-08-20T01:18:52.896Z,19.45
2022-08-20T01:21:24.980Z,19.41
2022-08-20T01:23:57.569Z,19.36
2022-08-20T01:27:29.549Z,19.36
2022-08-20T01:30:00.986Z,19.34
2022-08-20T01:32:34.887Z,19.35
2022-08-20T01:35:02.882Z,19.40
2022-08-20T01:37:31.387Z,19.40
2022-08-20T01:40:00.460Z,19.38
2022-08-20T01:42:31.299Z,19.42
2022-08-20T01:45:00.513Z,19.38
2022-08-20T01:47:38.314Z,19.38
2022-08-20T01:50:13.581Z,19.37
2022-08-20T01:52:52.477Z,19.50
2022-08-20T01:55:20.818Z,19.42
2022-08-20T01:57:50.211Z,19.41
2022-08-20T02:00:22.732Z,19.38
2022-08-20T02:02:52.062Z,19.37
2022-08-20T02:05:21.349Z,19.31
2022-08-20T02:07:49.975Z,19.39
2022-08-20T02:10:19.931Z,19.35
2022-08-20T02:12:48.748Z,19.27
2022-08-20T02:16:18.184Z,19.33
2022-08-20T02:18:47.543Z,19.30
2022-08-20T02:21:15.383Z,19.40
2022-08-20T02:23:43.336Z,19.39
2022-08-20T02:27:16.525Z,19.33
2022-08-20T02:29:44.200Z,19.39
2022-08-20T02:32:25.099Z,19.32
2022-08-20T02:35:03.334Z,19.24
2022-08-20T02:37:32.615Z,19.42
2022-08-20T02:40:01.186Z,19.32
2022-08-20T02:42:29.636Z,19.31
2022-08-20T02:44:58.636Z,19.33
2022-08-20T02:47:27.668Z,19.25
2022-08-20T02:49:56.540Z,19.22
2022-08-20T02:52:25.809Z,19.27
2022-08-20T02:55:58.879Z,19.37
2022-08-20T02:58:28.401Z,19.36
2022-08-20T03:00:56.901Z,19.30
2022-08-20T03:03:26.216Z,19.24
2022-08-20T03:05:56.389Z,19.33
2022-08-20T03:08:26.684Z,19.44
2022-08-20T03:10:55.335Z,19.36
2022-08-20T03:13:24.408Z,19.46
2022-08-20T03:15:58.619Z,19.35
2022-08-20T03:18:28.935Z,19.37
2022-08-20T03:20:56.709Z,19.38
2022-08-20T03:23:27.510Z,19.41
2022-08-20T03:26:59.603Z,19.33
2022-08-20T03:29:28.211Z,19.36
2022-08-20T03:31:56.076Z,19.38
2022-08-20T03:34:24.523Z,19.32
2022-08-20T03:36:52.544Z,19.38
2022-08-20T03:39:22.091Z,19.33
2022-08-20T03:41:50.027Z,19.34
2022-08-20T03:44:18.889Z,19.32
2022-08-20T03:46:47.606Z,19.33
2022-08-20T03:49:16.803Z,19.22
2022-08-20T03:51:57.440Z,19.32
2022-08-20T03:54:32.005Z,19.33
2022-08-20T03:57:00.684Z,19.25
2022-08-20T03:59:28.387Z,19.23
2022-08-20T04:01:57.309Z,19.21
2022-08-20T04:04:25.477Z,19.20
2022-08-20T04:06:54.299Z,19.23
2022-08-20T04:09:22.895Z,19.16
2022-08-20T04:12:00.264Z,19.13
2022-08-20T04:14:27.923Z,19.02
2022-08-20T04:17:58.760Z,19.10
2022-08-20T04:20:28.668Z,19.09
2022-08-20T04:22:58.966Z,19.05
2022-08-20T04:25:29.759Z,19.10
2022-08-20T04:28:03.717Z,19.06
2022-08-20T04:30:32.852Z,19.09
2022-08-20T04:33:00.631Z,19.04
2022-08-20T04:35:30.482Z,19.10
2022-08-20T04:38:02.236Z,19.08
2022-08-20T04:40:47.483Z,19.15
2022-08-20T04:43:19.995Z,19.07
2022-08-20T04:45:48.266Z,19.06
2022-08-20T04:48:16.953Z,19.08
2022-08-20T04:51:48.963Z,19.09
2022-08-20T04:54:16.891Z,19.12
2022-08-20T04:56:44.766Z,19.13
2022-08-20T04:59:13.940Z,19.13
2022-08-20T05:01:42.204Z,19.11
2022-08-20T05:04:10.230Z,19.13
2022-08-20T05:06:41.161Z,19.14
2022-08-20T05:09:08.876Z,19.16
2022-08-20T05:11:37.162Z,19.12
2022-08-20T05:14:08.909Z,19.20
2022-08-20T05:16:41.193Z,19.24
2022-08-20T05:19:12.112Z,19.22
2022-08-20T05:21:41.055Z,19.23
2022-08-20T05:24:10.226Z,19.19
2022-08-20T05:26:38.842Z,19.20
2022-08-20T05:29:07.675Z,19.19
2022-08-20T05:31:36.223Z,19.26
2022-08-20T05:34:10.780Z,19.18
2022-08-20T05:36:40.800Z,19.19
2022-08-20T05:39:08.928Z,19.22
2022-08-20T05:41:37.773Z,19.26
2022-08-20T05:44:05.675Z,19.30
2022-08-20T05:46:33.616Z,19.29
2022-08-20T05:49:02.054Z,19.41
2022-08-20T05:51:36.705Z,19.41
2022-08-20T05:54:06.113Z,19.43
2022-08-20T05:56:35.022Z,19.30
2022-08-20T05:59:05.081Z,19.37
2022-08-20T06:01:34.370Z,19.42
2022-08-20T06:04:20.018Z,19.44
2022-08-20T06:06:51.823Z,19.52
2022-08-20T06:09:31.172Z,19.50
2022-08-20T06:12:02.801Z,19.63
2022-08-20T06:14:31.187Z,19.42
2022-08-20T06:17:10.634Z,19.46
2022-08-20T06:19:44.516Z,19.42
2022-08-20T06:22:21.732Z,19.61
2022-08-20T06:24:55.495Z,19.69
2022-08-20T06:27:24.287Z,19.79
2022-08-20T06:29:52.326Z,19.74
2022-08-20T06:32:32.514Z,19.76
2022-08-20T06:35:03.696Z,19.85
2022-08-20T06:37:37.194Z,19.79
2022-08-20T06:40:08.994Z,19.74
2022-08-20T06:42:41.655Z,19.97
2022-08-20T06:45:12.572Z,19.94
2022-08-20T06:47:42.157Z,19.93
2022-08-20T06:50:13.395Z,20.03
2022-08-20T06:52:52.151Z,20.13
2022-08-20T06:55:22.055Z,20.22
2022-08-20T06:57:58.006Z,20.08
2022-08-20T07:00:26.383Z,19.95
2022-08-20T07:02:54.151Z,19.90
2022-08-20T07:05:22.125Z,19.93
2022-08-20T07:07:51.442Z,20.20
2022-08-20T07:10:21.170Z,19.96
2022-08-20T07:12:51.449Z,20.17
2022-08-20T07:15:21.526Z,20.05
2022-08-20T07:17:58.730Z,20.09
2022-08-20T07:20:29.942Z,19.91
2022-08-20T07:22:59.294Z,20.16
2022-08-20T07:25:27.099Z,20.48
2022-08-20T07:28:01.613Z,20.42
2022-08-20T07:30:55.997Z,20.64
2022-08-20T07:33:25.088Z,20.81
2022-08-20T07:35:52.946Z,20.87
2022-08-20T07:38:25.093Z,20.84
2022-08-20T07:40:57.115Z,20.96
2022-08-20T07:43:25.422Z,21.18
2022-08-20T07:45:55.794Z,21.24
2022-08-20T07:48:31.458Z,21.21
2022-08-20T07:51:03.820Z,21.27
2022-08-20T07:53:37.398Z,21.17
2022-08-20T07:57:09.432Z,21.13
2022-08-20T07:59:39.898Z,21.25
2022-08-20T08:02:08.566Z,20.75
2022-08-20T08:04:38.497Z,20.95
2022-08-20T08:08:10.792Z,21.03
2022-08-20T08:10:41.653Z,21.53
2022-08-20T08:13:12.671Z,21.42
2022-08-20T08:15:45.838Z,21.31
2022-08-20T08:18:17.728Z,21.54
2022-08-20T08:20:46.671Z,22.01
2022-08-20T08:23:31.850Z,21.85
2022-08-20T08:26:01.434Z,22.39
2022-08-20T08:28:29.615Z,22.79
2022-08-20T08:30:58.081Z,22.78
2022-08-20T08:33:31.030Z,22.61
2022-08-20T08:36:00.425Z,22.08
2022-08-20T08:38:28.578Z,21.35
2022-08-20T08:41:00.282Z,20.94
2022-08-20T08:43:32.039Z,21.12
2022-08-20T08:46:02.615Z,21.21
2022-08-20T08:48:36.816Z,21.16
2022-08-20T08:51:07.691Z,21.27
2022-08-20T08:53:39.125Z,21.29
2022-08-20T08:56:07.761Z,21.49
2022-08-20T08:58:37.253Z,21.37
2022-08-20T09:01:09.873Z,21.89
2022-08-20T09:03:44.430Z,22.34
2022-08-20T09:06:16.151Z,22.50
2022-08-20T09:08:48.497Z,22.86
2022-08-20T09:11:18.142Z,23.17
2022-08-20T09:13:48.066Z,23.20
2022-08-20T09:16:16.582Z,23.39
2022-08-20T09:18:45.285Z,22.93
2022-08-20T09:21:14.591Z,22.52
2022-08-20T09:23:43.461Z,22.30
2022-08-20T09:26:11.218Z,22.23
2022-08-20T09:28:39.169Z,22.65
2022-08-20T09:31:08.405Z,22.56
2022-08-20T09:33:38.399Z,22.44
2022-08-20T09:36:31.415Z,22.40
2022-08-20T09:38:55.091Z,22.75
2022-08-20T09:41:22.820Z,22.61
2022-08-20T09:43:52.317Z,22.94
2022-08-20T09:46:27.373Z,22.80
2022-08-20T09:48:56.387Z,22.83
2022-08-20T09:55:07.247Z,23.07
2022-08-20T09:57:36.025Z,23.46
2022-08-20T10:00:08.732Z,24.17
2022-08-20T10:02:37.882Z,24.50
2022-08-20T10:05:06.445Z,23.72
2022-08-20T10:07:38.936Z,23.70
2022-08-20T10:10:08.170Z,24.07
2022-08-20T10:12:36.121Z,24.42
2022-08-20T10:15:03.885Z,24.11
2022-08-20T10:17:31.832Z,23.98
2022-08-20T10:20:03.372Z,23.79
2022-08-20T10:22:33.060Z,23.48
2022-08-20T10:25:01.355Z,23.50
2022-08-20T10:27:29.219Z,24.02
2022-08-20T10:29:58.401Z,24.51
2022-08-20T10:32:27.051Z,24.30
2022-08-20T10:34:54.915Z,24.63
2022-08-20T10:37:25.701Z,24.25
2022-08-20T10:39:54.075Z,24.72
2022-08-20T10:42:22.878Z,25.05
2022-08-20T10:44:50.864Z,23.93
2022-08-20T10:47:24.805Z,23.50
2022-08-20T10:49:55.806Z,23.52
2022-08-20T10:52:29.351Z,23.05
2022-08-20T10:54:58.420Z,22.95
2022-08-20T10:57:29.587Z,22.96
2022-08-20T10:59:59.522Z,22.81
2022-08-20T11:02:29.088Z,23.20
2022-08-20T11:04:57.722Z,23.24
2022-08-20T11:07:54.987Z,23.33
2022-08-20T11:11:21.460Z,23.68
2022-08-20T11:13:49.325Z,24.80
2022-08-20T11:19:59.497Z,25.19
2022-08-20T11:22:29.207Z,24.43
2022-08-20T11:24:58.452Z,23.96
2022-08-20T11:27:28.455Z,23.70
2022-08-20T11:29:56.766Z,23.90
2022-08-20T11:32:25.904Z,23.86
2022-08-20T11:34:54.477Z,24.02
2022-08-20T11:37:25.267Z,24.15
2022-08-20T11:39:56.842Z,23.72
2022-08-20T11:42:24.862Z,23.51
2022-08-20T11:44:53.552Z,23.16
2022-08-20T11:47:24.265Z,23.15
2022-08-20T11:50:56.720Z,22.97
2022-08-20T11:53:26.366Z,23.12
2022-08-20T11:55:55.482Z,23.29
2022-08-20T11:58:23.292Z,23.75
2022-08-20T12:00:51.998Z,23.90
2022-08-20T12:03:20.631Z,23.88
2022-08-20T12:05:48.924Z,23.69
2022-08-20T12:08:27.133Z,23.31
2022-08-20T12:11:01.551Z,23.57
2022-08-20T12:13:47.397Z,23.91
2022-08-20T12:16:16.886Z,23.41
2022-08-20T12:18:45.760Z,23.69
2022-08-20T12:21:13.527Z,23.53
2022-08-20T12:23:41.535Z,24.23
2022-08-20T12:26:13.770Z,25.27
2022-08-20T12:28:41.824Z,25.21
2022-08-20T12:31:09.679Z,24.24
2022-08-20T12:33:37.811Z,23.83
2022-08-20T12:36:06.262Z,24.22
2022-08-20T12:38:34.114Z,25.46
2022-08-20T12:41:02.745Z,24.34
2022-08-20T12:43:32.499Z,24.58
2022-08-20T12:46:00.577Z,24.68
2022-08-20T12:48:28.692Z,24.95
2022-08-20T12:50:56.742Z,25.63
2022-08-20T12:53:25.440Z,25.48
2022-08-20T12:55:53.186Z,25.64
2022-08-20T12:58:21.268Z,25.61
2022-08-20T13:00:52.717Z,24.50
2022-08-20T13:03:21.758Z,24.85
2022-08-20T13:05:51.006Z,25.02
2022-08-20T13:08:19.832Z,25.16
2022-08-20T13:10:47.736Z,26.05
2022-08-20T13:13:17.693Z,26.49
2022-08-20T13:15:49.666Z,26.65
2022-08-20T13:18:20.998Z,28.71
2022-08-20T13:20:49.137Z,28.64
2022-08-20T13:23:17.240Z,29.05
2022-08-20T13:25:45.914Z,27.20
2022-08-20T13:28:14.246Z,27.50
2022-08-20T13:30:42.039Z,28.03
2022-08-20T13:33:10.853Z,27.10
2022-08-20T13:35:40.542Z,26.62
2022-08-20T13:38:08.670Z,26.51
2022-08-20T13:40:36.649Z,27.21
2022-08-20T13:43:07.582Z,28.01
2022-08-20T13:45:40.949Z,27.50
2022-08-20T13:48:10.103Z,27.49
2022-08-20T13:50:49.061Z,26.42
2022-08-20T13:53:18.277Z,26.94
2022-08-20T13:55:46.932Z,26.61
2022-08-20T13:58:14.740Z,27.01
2022-08-20T14:00:42.755Z,25.98
2022-08-20T14:03:11.723Z,26.30
2022-08-20T14:05:40.464Z,25.88
2022-08-20T14:08:13.112Z,25.32
2022-08-20T14:10:42.903Z,25.80
2022-08-20T14:13:15.176Z,25.78
2022-08-20T14:15:45.033Z,25.96
2022-08-20T14:18:14.387Z,26.95
2022-08-20T14:20:45.559Z,27.40
2022-08-20T14:23:15.478Z,27.42
2022-08-20T14:25:46.706Z,27.60
2022-08-20T14:28:18.249Z,28.30
2022-08-20T14:30:52.624Z,28.64
2022-08-20T14:33:21.432Z,30.06
2022-08-20T14:35:49.877Z,30.96
2022-08-20T14:38:19.683Z,30.48
2022-08-20T14:40:50.226Z,28.91
2022-08-20T14:43:20.443Z,28.45
2022-08-20T14:45:48.380Z,27.58
2022-08-20T14:48:17.888Z,27.58
2022-08-20T14:50:45.745Z,26.77
2022-08-20T14:53:14.416Z,28.31
2022-08-20T14:55:43.483Z,28.88
2022-08-20T14:58:12.466Z,27.25
2022-08-20T15:00:41.226Z,26.84
2022-08-20T15:07:51.952Z,29.13
2022-08-20T15:10:24.950Z,29.23
2022-08-20T15:12:56.649Z,28.18
2022-08-20T15:15:26.981Z,26.31
2022-08-20T15:17:58.024Z,25.37
2022-08-20T15:20:28.216Z,26.15
2022-08-20T15:30:23.268Z,25.77
2022-08-20T15:32:54.966Z,25.63
2022-08-20T15:35:26.120Z,25.56
2022-08-20T15:37:56.910Z,27.35
2022-08-20T15:40:28.723Z,27.72
2022-08-20T15:42:58.621Z,27.47
2022-08-20T15:45:30.869Z,27.02
2022-08-20T15:48:03.049Z,28.65
2022-08-20T15:50:53.184Z,26.82
2022-08-20T15:53:25.069Z,28.36
2022-08-20T15:55:58.839Z,28.85
2022-08-20T15:58:33.328Z,27.18
2022-08-20T16:01:24.733Z,30.71
2022-08-20T16:04:07.248Z,32.42
2022-08-20T16:06:36.625Z,30.21
2022-08-20T16:09:19.720Z,28.46
2022-08-20T16:11:52.243Z,28.06
2022-08-20T16:14:24.299Z,26.81
2022-08-20T16:17:04.430Z,25.66
2022-08-20T16:19:37.658Z,24.84
2022-08-20T16:22:06.424Z,24.86
2022-08-20T16:24:35.193Z,28.71
2022-08-20T16:27:13.665Z,27.60
2022-08-20T16:29:47.741Z,27.48
2022-08-20T16:32:21.602Z,28.11
2022-08-20T16:34:53.147Z,29.74
2022-08-20T16:37:26.738Z,26.42
2022-08-20T16:40:01.561Z,25.02
2022-08-20T16:42:33.284Z,25.00
2022-08-20T16:45:02.185Z,25.02
2022-08-20T16:47:35.829Z,24.72
2022-08-20T16:50:07.783Z,24.72
2022-08-20T16:52:35.742Z,24.78
2022-08-20T16:55:03.989Z,24.44
2022-08-20T16:57:31.910Z,26.05
2022-08-20T17:00:08.445Z,27.64
2022-08-20T17:02:50.880Z,25.55
2022-08-20T17:05:19.085Z,26.19
2022-08-20T17:07:51.560Z,26.54
2022-08-20T17:10:24.931Z,26.99
2022-08-20T17:12:55.230Z,26.22
2022-08-20T17:15:26.737Z,27.19
2022-08-20T17:18:18.180Z,28.10
2022-08-20T17:20:47.816Z,27.81
2022-08-20T17:23:18.509Z,27.78
2022-08-20T17:25:55.289Z,28.58
2022-08-20T17:28:24.419Z,26.71
2022-08-20T17:30:53.601Z,27.57
2022-08-20T17:33:39.960Z,27.77
2022-08-20T17:36:11.499Z,26.41
2022-08-20T17:38:43.064Z,25.92
2022-08-20T17:41:17.358Z,24.81
2022-08-20T17:43:46.294Z,24.62
2022-08-20T17:46:17.555Z,23.74
2022-08-20T17:48:50.297Z,23.83
2022-08-20T17:51:21.561Z,23.11
2022-08-20T17:53:53.008Z,23.00
2022-08-20T17:56:23.635Z,22.29
2022-08-20T17:58:56.583Z,22.28
2022-08-20T18:01:27.287Z,22.58
2022-08-20T18:04:00.784Z,21.80
2022-08-20T18:06:35.743Z,21.87
2022-08-20T18:09:08.568Z,21.23
2022-08-20T18:11:41.776Z,20.80
2022-08-20T18:14:27.477Z,20.42
2022-08-20T18:17:08.203Z,20.11
2022-08-20T18:20:15.236Z,20.06
2022-08-20T18:22:50.801Z,20.01
2022-08-20T18:25:30.977Z,20.18
2022-08-20T18:28:05.140Z,20.14
2022-08-20T18:30:34.315Z,19.99
2022-08-20T18:33:05.441Z,20.10
2022-08-20T18:35:37.973Z,20.22
2022-08-20T18:38:14.130Z,20.61
2022-08-20T18:40:41.909Z,21.00
2022-08-20T18:43:13.982Z,20.42
2022-08-20T18:45:43.029Z,20.06
2022-08-20T18:49:12.213Z,19.92
2022-08-20T18:51:49.401Z,19.81
2022-08-20T18:54:25.030Z,19.82
2022-08-20T19:04:20.615Z,19.62
2022-08-20T19:06:57.606Z,19.57
2022-08-20T19:09:47.869Z,19.85
2022-08-20T19:12:29.637Z,19.57
2022-08-20T19:15:03.530Z,19.62
2022-08-20T19:17:50.739Z,19.49
2022-08-20T19:20:21.395Z,19.30
2022-08-20T19:22:55.698Z,19.35
2022-08-20T19:25:27.629Z,19.25
2022-08-20T19:27:57.287Z,19.09
2022-08-20T19:30:33.108Z,18.98
2022-08-20T19:33:01.877Z,19.28
2022-08-20T19:35:30.639Z,19.23
2022-08-20T19:38:02.571Z,19.31
2022-08-20T19:40:38.149Z,19.02
2022-08-20T19:43:12.149Z,19.21
2022-08-20T19:45:42.779Z,19.26
2022-08-20T19:48:41.492Z,19.03
2022-08-20T19:51:14.018Z,19.14
2022-08-20T19:53:48.660Z,19.52
2022-08-20T19:56:19.054Z,19.06
2022-08-20T19:58:47.049Z,18.91
2022-08-20T20:01:19.213Z,18.82
2022-08-20T20:03:58.558Z,18.90
2022-08-20T20:06:27.366Z,18.60
2022-08-20T20:09:00.734Z,18.21
2022-08-20T20:11:34.482Z,18.42
2022-08-20T20:14:04.760Z,17.91
2022-08-20T20:16:33.216Z,17.89
2022-08-20T20:19:24.894Z,17.77
2022-08-20T20:21:51.720Z,17.83
2022-08-20T20:24:26.431Z,17.59
2022-08-20T20:26:55.593Z,17.57
2022-08-20T20:29:26.020Z,17.14
2022-08-20T20:31:55.627Z,17.12
2022-08-20T20:34:27.261Z,17.05
2022-08-20T20:37:16.293Z,17.05
2022-08-20T20:40:19.364Z,17.22
2022-08-20T20:42:58.824Z,17.36
2022-08-20T20:45:33.318Z,17.00
2022-08-20T20:48:06.567Z,17.20
2022-08-20T20:50:36.354Z,17.12
2022-08-20T20:53:04.171Z,16.89
2022-08-20T20:55:39.047Z,16.80
2022-08-20T20:58:06.891Z,16.83
2022-08-20T21:00:35.397Z,16.87
2022-08-20T21:03:04.010Z,16.85
2022-08-20T21:05:33.311Z,16.65
2022-08-20T21:08:03.948Z,16.36
2022-08-20T21:10:37.000Z,16.12
2022-08-20T21:13:06.680Z,16.44
2022-08-20T21:15:35.518Z,16.25
2022-08-20T21:18:06.446Z,17.66
2022-08-20T21:20:35.704Z,18.33
2022-08-20T21:23:05.137Z,18.45
2022-08-20T21:25:35.548Z,18.51
2022-08-20T21:28:03.790Z,18.58
2022-08-20T21:30:33.812Z,18.67
2022-08-20T21:33:01.718Z,18.67
2022-08-20T21:35:30.528Z,18.52
2022-08-20T21:37:58.813Z,18.57
2022-08-20T21:40:28.377Z,18.37
2022-08-20T21:42:59.958Z,18.38
2022-08-20T21:45:28.687Z,18.51
2022-08-20T21:47:57.498Z,18.33
2022-08-20T21:50:26.404Z,18.42
2022-08-20T21:52:59.106Z,18.33
2022-08-20T21:56:32.373Z,18.30
2022-08-20T21:59:05.119Z,18.29
2022-08-20T22:01:35.405Z,18.15
2022-08-20T22:04:03.443Z,18.12
2022-08-20T22:06:33.710Z,18.01
2022-08-20T22:09:01.535Z,17.98
2022-08-20T22:11:31.342Z,17.83
2022-08-20T22:13:59.771Z,17.91
2022-08-20T22:16:29.927Z,17.75
2022-08-20T22:18:57.895Z,17.69
2022-08-20T22:21:28.326Z,17.62
2022-08-20T22:24:01.349Z,17.61
2022-08-20T22:26:30.214Z,17.56
2022-08-20T22:28:59.125Z,17.57
2022-08-20T22:31:31.680Z,17.13
2022-08-20T22:34:01.979Z,17.08
2022-08-20T22:36:29.976Z,17.14
2022-08-20T22:38:58.526Z,17.02
2022-08-20T22:41:26.501Z,16.23
2022-08-20T22:43:56.307Z,16.88
2022-08-20T22:46:27.912Z,16.66
2022-08-20T22:48:58.660Z,16.68
2022-08-20T22:51:32.406Z,16.90
2022-08-20T22:54:04.046Z,16.71
2022-08-20T22:56:33.146Z,16.38
2022-08-20T22:59:02.626Z,16.44
2022-08-20T23:01:32.306Z,16.77
2022-08-20T23:04:10.021Z,16.71
2022-08-20T23:06:38.781Z,16.72
2022-08-20T23:09:08.100Z,16.07
2022-08-20T23:11:41.618Z,15.68
2022-08-20T23:14:10.404Z,15.37
2022-08-20T23:16:40.823Z,15.68
2022-08-20T23:19:11.170Z,14.96
2022-08-20T23:21:38.825Z,14.93
2022-08-20T23:24:14.312Z,15.42
2022-08-20T23:26:52.385Z,14.80
2022-08-20T23:29:25.133Z,14.49
2022-08-20T23:31:56.479Z,15.02
2022-08-20T23:34:29.372Z,14.75
2022-08-20T23:36:58.430Z,14.78
2022-08-20T23:39:27.201Z,14.82
2022-08-20T23:41:56.715Z,14.95
2022-08-20T23:44:26.569Z,14.91
2022-08-20T23:47:59.298Z,14.90
2022-08-20T23:50:30.514Z,14.99
2022-08-20T23:52:59.744Z,14.78
2022-08-20T23:55:27.703Z,14.82
2022-08-20T23:57:55.492Z,14.79
